createdAt,value
2019-05-29T00:01:10.394Z,18.00
2019-05-29T00:03:36.900Z,15.58
2019-05-29T00:06:06.199Z,18.32
2019-05-29T00:08:35.109Z,34.73
2019-05-29T00:11:03.784Z,33.00
2019-05-29T00:13:32.417Z,29.40
2019-05-29T00:16:01.552Z,26.55
2019-05-29T00:18:30.131Z,36.70
2019-05-29T00:20:58.722Z,49.67
2019-05-29T00:23:27.395Z,73.28
2019-05-29T00:25:56.003Z,79.32
2019-05-29T00:28:24.760Z,70.60
2019-05-29T00:30:53.355Z,66.72
2019-05-29T00:33:21.972Z,76.77
2019-05-29T00:35:50.643Z,81.17
2019-05-29T00:38:19.324Z,85.77
2019-05-29T00:40:47.918Z,68.70
2019-05-29T00:43:17.557Z,83.80
2019-05-29T00:45:46.590Z,82.60
2019-05-29T00:48:16.041Z,84.62
2019-05-29T00:50:44.995Z,81.87
2019-05-29T00:53:14.298Z,84.35
2019-05-29T00:55:43.248Z,94.17
2019-05-29T00:58:12.771Z,90.77
2019-05-29T01:00:41.795Z,84.52
2019-05-29T01:03:11.548Z,86.85
2019-05-29T01:05:40.381Z,79.40
2019-05-29T01:08:10.243Z,88.78
2019-05-29T01:10:39.324Z,75.45
2019-05-29T01:13:07.920Z,74.27
2019-05-29T01:15:36.711Z,58.63
2019-05-29T01:18:05.701Z,55.03
2019-05-29T01:20:34.269Z,42.78
2019-05-29T01:23:02.895Z,40.25
2019-05-29T01:25:31.627Z,37.65
2019-05-29T01:28:00.215Z,38.33
2019-05-29T01:30:28.799Z,37.35
2019-05-29T01:32:57.465Z,37.48
2019-05-29T01:35:26.123Z,43.00
2019-05-29T01:37:54.722Z,68.80
2019-05-29T01:40:27.216Z,70.75
2019-05-29T01:42:53.576Z,78.50
2019-05-29T01:45:23.484Z,101.42
2019-05-29T01:47:52.322Z,99.77
2019-05-29T01:50:21.768Z,96.12
2019-05-29T01:52:50.487Z,101.25
2019-05-29T01:55:19.785Z,87.45
2019-05-29T01:57:48.626Z,82.55
2019-05-29T02:00:17.888Z,64.55
2019-05-29T02:02:46.762Z,64.62
2019-05-29T02:05:15.744Z,68.85
2019-05-29T02:07:44.466Z,64.27
2019-05-29T02:10:13.666Z,41.00
2019-05-29T02:12:42.237Z,50.75
2019-05-29T02:15:24.853Z,53.05
2019-05-29T02:17:41.831Z,40.67
2019-05-29T02:20:11.270Z,40.95
2019-05-29T02:22:39.910Z,41.83
2019-05-29T02:25:09.906Z,36.33
2019-05-29T02:27:38.505Z,29.37
2019-05-29T02:30:08.331Z,23.30
2019-05-29T02:32:37.184Z,23.92
2019-05-29T02:35:06.999Z,19.37
2019-05-29T02:37:35.660Z,20.48
2019-05-29T02:40:07.260Z,28.80
2019-05-29T02:42:35.994Z,40.28
2019-05-29T02:45:07.233Z,36.95
2019-05-29T02:47:35.836Z,44.23
2019-05-29T02:50:07.751Z,37.35
2019-05-29T02:52:36.477Z,42.45
2019-05-29T02:55:07.580Z,41.00
2019-05-29T02:57:36.183Z,54.33
2019-05-29T03:00:08.158Z,63.17
2019-05-29T03:02:37.134Z,59.40
2019-05-29T03:05:06.934Z,52.62
2019-05-29T03:07:36.048Z,49.88
2019-05-29T03:10:06.984Z,50.55
2019-05-29T03:12:36.420Z,49.67
2019-05-29T03:15:06.273Z,43.80
2019-05-29T03:17:34.916Z,49.48
2019-05-29T03:20:04.676Z,54.35
2019-05-29T03:22:35.392Z,46.70
2019-05-29T03:25:04.947Z,37.28
2019-05-29T03:27:33.961Z,39.55
2019-05-29T03:30:02.954Z,44.25
2019-05-29T03:32:39.223Z,38.20
2019-05-29T03:35:01.986Z,32.45
2019-05-29T03:37:32.334Z,28.50
2019-05-29T03:40:01.213Z,28.32
2019-05-29T03:42:30.370Z,26.68
2019-05-29T03:44:59.013Z,28.52
2019-05-29T03:47:28.754Z,30.50
2019-05-29T03:49:57.651Z,38.38
2019-05-29T03:52:28.279Z,32.67
2019-05-29T03:54:56.600Z,35.17
2019-05-29T03:57:25.367Z,40.70
2019-05-29T03:59:53.970Z,45.98
2019-05-29T04:02:22.748Z,54.55
2019-05-29T04:04:51.475Z,60.08
2019-05-29T04:07:20.054Z,56.53
2019-05-29T04:09:48.763Z,63.52
2019-05-29T04:12:19.079Z,50.80
2019-05-29T04:14:48.954Z,51.90
2019-05-29T04:17:20.510Z,47.10
2019-05-29T04:19:49.134Z,45.92
2019-05-29T04:22:20.982Z,42.78
2019-05-29T04:24:52.187Z,29.17
2019-05-29T04:27:23.866Z,26.52
2019-05-29T04:29:53.812Z,20.52
2019-05-29T04:32:22.403Z,16.97
2019-05-29T04:34:51.158Z,16.32
2019-05-29T04:37:19.798Z,20.35
2019-05-29T04:39:48.544Z,24.02
2019-05-29T04:42:17.238Z,24.10
2019-05-29T04:44:45.935Z,26.45
2019-05-29T04:47:14.461Z,27.60
2019-05-29T04:49:43.080Z,25.37
2019-05-29T04:52:12.086Z,24.47
2019-05-29T04:54:40.702Z,23.92
2019-05-29T04:57:10.248Z,24.95
2019-05-29T04:59:39.253Z,25.60
2019-05-29T05:02:08.222Z,30.60
2019-05-29T05:04:37.332Z,31.20
2019-05-29T05:07:06.330Z,36.58
2019-05-29T05:09:35.414Z,36.70
2019-05-29T05:12:04.209Z,40.75
2019-05-29T05:14:33.590Z,45.65
2019-05-29T05:17:02.579Z,37.28
2019-05-29T05:19:31.821Z,36.85
2019-05-29T05:22:00.742Z,30.75
2019-05-29T05:24:30.172Z,27.42
2019-05-29T05:26:59.041Z,23.32
2019-05-29T05:29:29.931Z,18.25
2019-05-29T05:31:58.427Z,24.02
2019-05-29T05:34:27.040Z,23.30
2019-05-29T05:36:55.753Z,26.60
2019-05-29T05:39:24.512Z,23.75
2019-05-29T05:41:54.499Z,24.00
2019-05-29T05:44:23.134Z,26.05
2019-05-29T05:46:51.782Z,26.10
2019-05-29T05:49:20.445Z,24.40
2019-05-29T05:51:49.202Z,26.20
2019-05-29T05:54:17.624Z,24.00
2019-05-29T05:56:46.445Z,21.23
2019-05-29T05:59:16.837Z,18.05
2019-05-29T06:01:45.482Z,16.67
2019-05-29T06:04:14.167Z,15.30
2019-05-29T06:06:43.464Z,17.57
2019-05-29T06:09:12.322Z,17.27
2019-05-29T06:11:41.008Z,17.30
2019-05-29T06:14:09.912Z,15.55
2019-05-29T06:16:38.705Z,14.65
2019-05-29T06:19:07.553Z,12.75
2019-05-29T06:21:36.730Z,11.00
2019-05-29T06:24:06.155Z,12.60
2019-05-29T06:26:34.914Z,12.85
2019-05-29T06:29:03.892Z,15.98
2019-05-29T06:31:33.315Z,11.45
2019-05-29T06:34:02.211Z,14.23
2019-05-29T06:36:30.952Z,19.57
2019-05-29T06:38:59.903Z,16.80
2019-05-29T06:41:28.847Z,14.47
2019-05-29T06:43:57.754Z,17.95
2019-05-29T06:46:26.455Z,16.55
2019-05-29T06:49:00.239Z,20.00
2019-05-29T06:51:25.466Z,24.45
2019-05-29T06:53:56.776Z,25.85
2019-05-29T06:56:25.696Z,25.97
2019-05-29T06:58:54.299Z,20.95
2019-05-29T07:01:23.031Z,22.07
2019-05-29T07:04:10.061Z,22.62
2019-05-29T07:06:21.955Z,26.45
2019-05-29T07:08:50.558Z,22.30
2019-05-29T07:11:19.363Z,22.80
2019-05-29T07:13:50.288Z,21.97
2019-05-29T07:16:20.157Z,22.32
2019-05-29T07:19:23.426Z,21.17
2019-05-29T07:21:19.192Z,22.15
2019-05-29T07:23:48.784Z,21.52
2019-05-29T07:26:17.579Z,22.37
2019-05-29T07:29:05.658Z,23.20
2019-05-29T07:31:16.630Z,20.10
2019-05-29T07:33:45.284Z,15.00
2019-05-29T07:36:14.045Z,13.55
2019-05-29T07:38:48.821Z,16.80
2019-05-29T07:41:13.127Z,17.55
2019-05-29T07:43:41.841Z,16.57
2019-05-29T07:46:10.546Z,15.45
2019-05-29T07:48:40.422Z,15.68
2019-05-29T07:51:09.354Z,21.33
2019-05-29T07:53:38.764Z,21.60
2019-05-29T07:56:21.583Z,18.95
2019-05-29T07:58:38.671Z,18.40
2019-05-29T08:01:13.279Z,19.92
2019-05-29T08:03:39.253Z,15.25
2019-05-29T08:06:08.414Z,17.80
2019-05-29T08:08:36.947Z,16.52
2019-05-29T08:11:05.846Z,15.60
2019-05-29T08:13:34.520Z,14.78
2019-05-29T08:16:03.510Z,16.60
2019-05-29T08:18:32.271Z,18.20
2019-05-29T08:21:00.954Z,13.48
2019-05-29T08:23:29.564Z,10.68
2019-05-29T08:25:58.401Z,13.35
2019-05-29T08:28:27.035Z,10.90
2019-05-29T08:30:56.518Z,12.60
2019-05-29T08:33:25.732Z,13.22
2019-05-29T08:35:59.856Z,13.85
2019-05-29T08:38:24.607Z,13.30
2019-05-29T08:40:53.322Z,15.10
2019-05-29T08:43:23.092Z,17.70
2019-05-29T08:45:52.694Z,15.18
2019-05-29T08:48:21.374Z,14.83
2019-05-29T08:50:50.037Z,17.45
2019-05-29T08:53:18.906Z,10.80
2019-05-29T08:55:48.318Z,9.55
2019-05-29T08:58:17.438Z,11.40
2019-05-29T09:00:49.885Z,11.88
2019-05-29T09:03:16.493Z,11.60
2019-05-29T09:05:46.570Z,10.68
2019-05-29T09:08:15.574Z,9.83
2019-05-29T09:10:45.219Z,10.72
2019-05-29T09:13:14.236Z,10.95
2019-05-29T09:15:42.991Z,3.72
2019-05-29T09:18:12.913Z,2.85
2019-05-29T09:21:00.935Z,4.78
2019-05-29T09:23:12.757Z,4.97
2019-05-29T09:25:41.478Z,3.98
2019-05-29T09:28:16.587Z,5.20
2019-05-29T09:30:46.126Z,5.37
2019-05-29T09:33:16.301Z,12.37
2019-05-29T09:35:45.120Z,4.72
2019-05-29T09:38:14.069Z,4.72
2019-05-29T09:40:44.144Z,3.95
2019-05-29T09:43:12.934Z,4.95
2019-05-29T09:45:41.715Z,2.55
2019-05-29T09:48:10.338Z,3.85
2019-05-29T09:50:50.068Z,4.87
2019-05-29T09:53:09.230Z,2.20
2019-05-29T09:55:38.007Z,2.85
2019-05-29T09:58:06.670Z,3.90
2019-05-29T10:00:35.406Z,2.12
2019-05-29T10:03:04.238Z,3.80
2019-05-29T10:05:32.925Z,3.95
2019-05-29T10:08:02.376Z,2.80
2019-05-29T10:10:32.368Z,5.15
2019-05-29T10:13:02.729Z,9.38
2019-05-29T10:15:31.229Z,13.13
2019-05-29T10:18:00.648Z,9.78
2019-05-29T10:20:29.835Z,4.10
2019-05-29T10:22:59.022Z,7.03
2019-05-29T10:25:27.844Z,6.10
2019-05-29T10:27:56.840Z,3.02
2019-05-29T10:30:28.487Z,1.77
2019-05-29T10:32:57.224Z,1.82
2019-05-29T10:35:26.271Z,4.83
2019-05-29T10:37:54.951Z,5.83
2019-05-29T10:40:23.589Z,10.60
2019-05-29T10:42:53.526Z,2.90
2019-05-29T10:45:23.317Z,4.92
2019-05-29T10:47:53.959Z,6.72
2019-05-29T10:50:22.943Z,5.05
2019-05-29T10:52:52.187Z,8.15
2019-05-29T10:55:23.286Z,7.97
2019-05-29T10:57:55.105Z,6.55
2019-05-29T11:00:23.345Z,6.60
2019-05-29T11:02:54.572Z,6.45
2019-05-29T11:05:22.520Z,5.22
2019-05-29T11:07:51.891Z,5.58
2019-05-29T11:10:21.360Z,4.45
2019-05-29T11:12:50.606Z,5.53
2019-05-29T11:15:22.073Z,5.95
2019-05-29T11:17:51.438Z,5.30
2019-05-29T11:20:21.286Z,4.50
2019-05-29T11:22:50.010Z,3.50
2019-05-29T11:25:23.636Z,4.37
2019-05-29T11:27:50.371Z,4.50
2019-05-29T11:30:20.285Z,5.30
2019-05-29T11:32:50.856Z,5.40
2019-05-29T11:35:19.314Z,6.20
2019-05-29T11:37:47.910Z,5.30
2019-05-29T11:40:17.090Z,5.03
2019-05-29T11:42:45.654Z,3.95
2019-05-29T11:45:16.337Z,2.90
2019-05-29T11:47:45.090Z,3.92
2019-05-29T11:50:19.714Z,2.50
2019-05-29T11:52:46.135Z,1.98
2019-05-29T11:55:15.712Z,1.95
2019-05-29T11:57:44.433Z,3.17
2019-05-29T12:00:20.264Z,2.90
2019-05-29T12:02:45.824Z,2.12
2019-05-29T12:05:15.931Z,2.50
2019-05-29T12:07:44.787Z,3.20
2019-05-29T12:10:14.287Z,2.62
2019-05-29T12:12:43.162Z,3.92
2019-05-29T12:15:16.006Z,6.90
2019-05-29T12:17:42.892Z,11.08
2019-05-29T12:20:26.951Z,6.08
2019-05-29T12:23:07.311Z,5.12
2019-05-29T12:25:13.618Z,4.45
2019-05-29T12:27:42.291Z,3.40
2019-05-29T12:30:12.925Z,3.50
2019-05-29T12:32:41.649Z,2.90
2019-05-29T12:35:10.949Z,2.77
2019-05-29T12:37:39.643Z,4.20
2019-05-29T12:40:09.596Z,3.42
2019-05-29T12:42:38.346Z,2.08
2019-05-29T12:45:09.413Z,3.22
2019-05-29T12:47:38.030Z,3.25
2019-05-29T12:50:09.445Z,5.80
2019-05-29T12:52:38.531Z,5.03
2019-05-29T12:55:08.687Z,3.92
2019-05-29T12:57:37.404Z,4.67
2019-05-29T13:00:09.140Z,2.80
2019-05-29T13:02:37.880Z,3.27
2019-05-29T13:05:18.053Z,3.75
2019-05-29T13:07:38.994Z,3.95
2019-05-29T13:10:08.993Z,2.98
2019-05-29T13:12:38.026Z,2.85
2019-05-29T13:15:10.648Z,3.72
2019-05-29T13:17:39.391Z,3.65
2019-05-29T13:20:20.947Z,4.47
2019-05-29T13:22:43.229Z,5.05
2019-05-29T13:25:13.321Z,2.58
2019-05-29T13:27:42.200Z,3.58
2019-05-29T13:30:13.191Z,3.17
2019-05-29T13:32:42.130Z,5.17
2019-05-29T13:35:12.175Z,5.58
2019-05-29T13:37:42.490Z,5.12
2019-05-29T13:40:11.957Z,4.17
2019-05-29T13:42:40.869Z,2.47
2019-05-29T13:45:17.829Z,6.12
2019-05-29T13:47:42.463Z,3.70
2019-05-29T13:50:13.583Z,7.30
2019-05-29T13:52:42.438Z,4.42
2019-05-29T13:55:12.922Z,1.87
2019-05-29T13:57:41.594Z,4.45
2019-05-29T14:00:34.318Z,3.65
2019-05-29T14:02:46.526Z,2.62
2019-05-29T14:05:16.389Z,2.92
2019-05-29T14:07:45.535Z,2.02
2019-05-29T14:10:16.175Z,2.92
2019-05-29T14:12:44.840Z,3.25
2019-05-29T14:15:14.448Z,3.05
2019-05-29T14:17:43.027Z,2.20
2019-05-29T14:20:13.246Z,2.22
2019-05-29T14:22:41.955Z,2.45
2019-05-29T14:25:12.971Z,2.10
2019-05-29T14:27:41.836Z,2.55
2019-05-29T14:30:14.111Z,2.50
2019-05-29T14:32:43.019Z,2.40
2019-05-29T14:35:13.617Z,2.72
2019-05-29T14:37:42.456Z,2.50
2019-05-29T14:40:12.131Z,2.12
2019-05-29T14:42:40.997Z,1.65
2019-05-29T14:45:10.715Z,2.25
2019-05-29T14:47:40.890Z,2.00
2019-05-29T14:50:11.208Z,1.82
2019-05-29T14:52:41.004Z,3.40
2019-05-29T14:55:16.188Z,1.90
2019-05-29T14:57:41.229Z,1.90
2019-05-29T15:00:24.349Z,2.60
2019-05-29T15:02:42.964Z,2.47
2019-05-29T15:05:12.651Z,2.02
2019-05-29T15:07:42.704Z,1.75
2019-05-29T15:10:24.013Z,2.40
2019-05-29T15:12:42.593Z,1.60
2019-05-29T15:15:14.265Z,2.12
2019-05-29T15:17:42.064Z,1.70
2019-05-29T15:20:14.238Z,3.08
2019-05-29T15:22:42.861Z,2.30
2019-05-29T15:25:20.999Z,1.67
2019-05-29T15:27:43.924Z,3.20
2019-05-29T15:30:18.121Z,2.25
2019-05-29T15:32:43.442Z,1.70
2019-05-29T15:35:17.621Z,2.52
2019-05-29T15:37:43.191Z,4.50
2019-05-29T15:40:14.892Z,1.82
2019-05-29T15:45:14.117Z,2.00
2019-05-29T15:47:43.117Z,1.70
2019-05-29T15:50:13.688Z,1.98
2019-05-29T15:52:42.934Z,1.55
2019-05-29T15:55:27.658Z,1.98
2019-05-29T15:57:42.893Z,2.80
2019-05-29T16:00:13.863Z,1.85
2019-05-29T16:02:42.909Z,1.92
2019-05-29T16:05:19.837Z,2.27
2019-05-29T16:07:48.916Z,1.82
2019-05-29T16:10:22.417Z,1.92
2019-05-29T16:12:50.754Z,2.40
2019-05-29T16:15:19.912Z,1.85
2019-05-29T16:17:48.706Z,2.12
2019-05-29T16:20:18.559Z,1.65
2019-05-29T16:22:47.793Z,2.65
2019-05-29T16:25:17.546Z,2.20
2019-05-29T16:27:46.205Z,2.98
2019-05-29T16:30:15.895Z,1.52
2019-05-29T16:32:44.536Z,2.35
2019-05-29T16:35:13.562Z,2.85
2019-05-29T16:37:42.390Z,1.70
2019-05-29T16:40:14.200Z,1.85
2019-05-29T16:45:12.480Z,2.75
2019-05-29T16:47:41.078Z,1.87
2019-05-29T16:50:13.001Z,2.70
2019-05-29T16:55:13.346Z,1.60
2019-05-29T16:57:42.168Z,2.55
2019-05-29T17:00:13.592Z,1.40
2019-05-29T17:02:42.555Z,1.20
2019-05-29T17:05:11.983Z,1.50
2019-05-29T17:07:40.955Z,1.67
2019-05-29T17:10:11.614Z,1.70
2019-05-29T17:12:40.443Z,2.00
2019-05-29T17:15:11.469Z,2.00
2019-05-29T17:17:40.170Z,1.57
2019-05-29T17:20:10.119Z,1.45
2019-05-29T17:22:38.830Z,1.52
2019-05-29T17:25:09.360Z,2.05
2019-05-29T17:27:39.968Z,1.50
2019-05-29T17:30:09.829Z,1.22
2019-05-29T17:32:38.504Z,1.75
2019-05-29T17:35:10.654Z,1.72
2019-05-29T17:37:39.357Z,2.15
2019-05-29T17:40:08.904Z,2.17
2019-05-29T17:42:37.883Z,1.37
2019-05-29T17:45:10.509Z,1.17
2019-05-29T17:47:40.038Z,2.05
2019-05-29T17:50:09.715Z,1.67
2019-05-29T17:52:38.577Z,1.20
2019-05-29T17:55:08.218Z,1.20
2019-05-29T17:57:36.950Z,1.40
2019-05-29T18:00:11.659Z,1.62
2019-05-29T18:02:51.584Z,1.77
2019-05-29T18:05:11.721Z,1.20
2019-05-29T18:07:43.421Z,1.95
2019-05-29T18:10:12.342Z,1.60
2019-05-29T18:12:41.025Z,1.62
2019-05-29T18:15:10.733Z,1.70
2019-05-29T18:17:39.675Z,2.27
2019-05-29T18:20:14.251Z,2.65
2019-05-29T18:22:40.611Z,2.35
2019-05-29T18:25:10.222Z,1.90
2019-05-29T18:27:38.975Z,2.55
2019-05-29T18:30:09.216Z,1.32
2019-05-29T18:32:38.209Z,2.10
2019-05-29T18:35:08.035Z,1.45
2019-05-29T18:37:38.250Z,1.32
2019-05-29T18:40:12.446Z,2.27
2019-05-29T18:42:39.100Z,2.12
2019-05-29T18:45:20.528Z,0.98
2019-05-29T18:47:40.428Z,1.30
2019-05-29T18:50:10.280Z,1.40
2019-05-29T18:52:38.938Z,1.00
2019-05-29T18:55:09.151Z,1.60
2019-05-29T18:57:38.010Z,1.85
2019-05-29T19:00:11.460Z,1.25
2019-05-29T19:02:41.145Z,1.65
2019-05-29T19:05:10.665Z,1.22
2019-05-29T19:07:39.512Z,1.30
2019-05-29T19:10:08.978Z,1.52
2019-05-29T19:12:37.744Z,0.98
2019-05-29T19:15:07.912Z,1.32
2019-05-29T19:17:36.847Z,0.70
2019-05-29T19:20:07.312Z,1.00
2019-05-29T19:22:36.024Z,1.25
2019-05-29T19:25:08.379Z,1.12
2019-05-29T19:27:41.558Z,1.40
2019-05-29T19:30:10.835Z,2.50
2019-05-29T19:32:42.448Z,1.50
2019-05-29T19:35:11.754Z,1.30
2019-05-29T19:37:43.474Z,1.85
2019-05-29T19:40:13.806Z,1.30
2019-05-29T19:42:44.336Z,1.50
2019-05-29T19:45:13.274Z,1.60
2019-05-29T19:47:41.946Z,2.65
2019-05-29T19:50:11.768Z,1.30
2019-05-29T19:52:40.586Z,1.72
2019-05-29T19:55:09.618Z,1.50
2019-05-29T19:57:54.153Z,1.90
2019-05-29T20:00:12.338Z,2.00
2019-05-29T20:02:41.291Z,1.50
2019-05-29T20:05:10.238Z,1.20
2019-05-29T20:07:39.002Z,1.25
2019-05-29T20:10:09.345Z,1.50
2019-05-29T20:12:38.247Z,1.40
2019-05-29T20:15:07.896Z,1.30
2019-05-29T20:17:36.491Z,2.05
2019-05-29T20:20:08.811Z,1.70
2019-05-29T20:22:38.945Z,1.70
2019-05-29T20:25:08.552Z,1.57
2019-05-29T20:27:38.361Z,2.25
2019-05-29T20:30:10.339Z,2.15
2019-05-29T20:32:39.101Z,2.20
2019-05-29T20:35:07.946Z,1.67
2019-05-29T20:37:36.533Z,1.80
2019-05-29T20:40:08.355Z,2.90
2019-05-29T20:42:38.334Z,2.27
2019-05-29T20:45:07.797Z,2.05
2019-05-29T20:47:37.833Z,0.93
2019-05-29T20:50:28.128Z,1.27
2019-05-29T20:52:56.724Z,1.50
2019-05-29T20:55:25.286Z,1.70
2019-05-29T20:57:53.898Z,2.37
2019-05-29T21:00:23.208Z,1.82
2019-05-29T21:02:51.871Z,2.20
2019-05-29T21:05:20.695Z,2.75
2019-05-29T21:07:49.294Z,1.42
2019-05-29T21:10:24.941Z,1.27
2019-05-29T21:12:53.542Z,1.40
2019-05-29T21:15:22.597Z,1.37
2019-05-29T21:17:51.292Z,1.65
2019-05-29T21:20:20.177Z,1.15
2019-05-29T21:22:48.846Z,1.50
2019-05-29T21:25:19.339Z,1.17
2019-05-29T21:27:49.596Z,1.30
2019-05-29T21:30:23.710Z,1.12
2019-05-29T21:32:52.450Z,1.50
2019-05-29T21:35:21.218Z,1.32
2019-05-29T21:37:49.798Z,1.42
2019-05-29T21:40:19.028Z,1.10
2019-05-29T21:42:47.714Z,1.27
2019-05-29T21:45:16.593Z,1.35
2019-05-29T21:47:45.255Z,1.20
2019-05-29T21:50:14.524Z,1.55
2019-05-29T21:52:43.591Z,1.30
2019-05-29T21:55:12.852Z,1.45
2019-05-29T21:57:43.936Z,5.83
2019-05-29T22:00:15.351Z,1.60
2019-05-29T22:02:44.514Z,1.60
2019-05-29T22:05:14.645Z,1.40
2019-05-29T22:07:43.226Z,2.47
2019-05-29T22:10:13.058Z,2.22
2019-05-29T22:12:41.731Z,2.05
2019-05-29T22:15:10.499Z,2.45
2019-05-29T22:17:39.193Z,3.25
2019-05-29T22:20:09.176Z,3.83
2019-05-29T22:22:38.354Z,4.12
2019-05-29T22:25:08.562Z,3.60
2019-05-29T22:27:38.091Z,4.92
2019-05-29T22:30:08.757Z,3.63
2019-05-29T22:32:37.497Z,3.85
2019-05-29T22:35:10.165Z,2.93
2019-05-29T22:37:38.869Z,3.22
2019-05-29T22:40:09.113Z,2.35
2019-05-29T22:42:37.796Z,2.73
2019-05-29T22:45:07.112Z,2.10
2019-05-29T22:47:35.711Z,2.67
2019-05-29T22:50:06.416Z,2.72
2019-05-29T22:52:35.120Z,2.57
2019-05-29T22:55:05.718Z,2.60
2019-05-29T22:57:34.304Z,2.02
2019-05-29T23:00:03.630Z,2.80
2019-05-29T23:02:32.371Z,2.57
2019-05-29T23:05:03.526Z,2.83
2019-05-29T23:07:31.241Z,4.60
2019-05-29T23:10:00.625Z,4.40
2019-05-29T23:12:29.566Z,5.50
2019-05-29T23:14:58.513Z,10.50
2019-05-29T23:17:27.251Z,12.37
2019-05-29T23:19:56.659Z,11.63
2019-05-29T23:22:25.552Z,21.77
2019-05-29T23:24:54.850Z,24.30
2019-05-29T23:27:23.804Z,26.23
2019-05-29T23:29:52.655Z,32.57
2019-05-29T23:32:21.366Z,33.10
2019-05-29T23:34:49.945Z,32.83
2019-05-29T23:37:18.516Z,34.93
2019-05-29T23:39:47.123Z,32.80
2019-05-29T23:42:15.710Z,28.07
2019-05-29T23:44:44.293Z,21.43
2019-05-29T23:47:12.894Z,18.30
2019-05-29T23:49:41.663Z,14.33
2019-05-29T23:52:10.262Z,11.33
2019-05-29T23:54:38.930Z,9.20
2019-05-29T23:57:07.597Z,9.53
2019-05-29T23:59:36.577Z,10.13
